sensor_id;sensor_type;location;lat;lon;timestamp;pressure;altitude;pressure_sealevel;temperature
75428;BMP280;64008;55.612;37.698;2023-06-19T00:01:09;99884.94;;;21.39
75428;BMP280;64008;55.612;37.698;2023-06-19T00:03:34;99892.75;;;22.14
75428;BMP280;64008;55.612;37.698;2023-06-19T00:06:00;99885.53;;;22.00
75428;BMP280;64008;55.612;37.698;2023-06-19T00:08:25;99890.94;;;21.87
75428;BMP280;64008;55.612;37.698;2023-06-19T00:10:51;99892.38;;;21.70
75428;BMP280;64008;55.612;37.698;2023-06-19T00:13:16;99892.38;;;21.70
75428;BMP280;64008;55.612;37.698;2023-06-19T00:15:42;99888.28;;;22.09
75428;BMP280;64008;55.612;37.698;2023-06-19T00:18:07;99898.47;;;21.62
75428;BMP280;64008;55.612;37.698;2023-06-19T00:20:33;99898.63;;;20.96
75428;BMP280;64008;55.612;37.698;2023-06-19T00:22:59;99896.28;;;21.23
75428;BMP280;64008;55.612;37.698;2023-06-19T00:25:25;99893.81;;;20.66
75428;BMP280;64008;55.612;37.698;2023-06-19T00:27:50;99896.69;;;21.16
75428;BMP280;64008;55.612;37.698;2023-06-19T00:30:16;99895.41;;;21.41
75428;BMP280;64008;55.612;37.698;2023-06-19T00:32:41;99890.50;;;21.57
75428;BMP280;64008;55.612;37.698;2023-06-19T00:35:15;99885.88;;;22.07
75428;BMP280;64008;55.612;37.698;2023-06-19T00:37:43;99893.03;;;20.65
75428;BMP280;64008;55.612;37.698;2023-06-19T00:40:29;99887.50;;;20.24
75428;BMP280;64008;55.612;37.698;2023-06-19T00:42:55;99888.72;;;20.32
75428;BMP280;64008;55.612;37.698;2023-06-19T00:45:20;99893.03;;;20.79
75428;BMP280;64008;55.612;37.698;2023-06-19T00:47:46;99901.41;;;20.45
75428;BMP280;64008;55.612;37.698;2023-06-19T00:50:12;99909.94;;;20.80
75428;BMP280;64008;55.612;37.698;2023-06-19T00:52:37;99898.44;;;20.93
75428;BMP280;64008;55.612;37.698;2023-06-19T00:55:04;99900.44;;;21.15
75428;BMP280;64008;55.612;37.698;2023-06-19T00:57:30;99902.28;;;21.33
75428;BMP280;64008;55.612;37.698;2023-06-19T00:59:57;99895.69;;;21.26
75428;BMP280;64008;55.612;37.698;2023-06-19T01:02:23;99906.81;;;21.47
75428;BMP280;64008;55.612;37.698;2023-06-19T01:04:50;99907.31;;;21.07
75428;BMP280;64008;55.612;37.698;2023-06-19T01:07:22;99907.34;;;21.62
75428;BMP280;64008;55.612;37.698;2023-06-19T01:09:56;99894.66;;;21.77
75428;BMP280;64008;55.612;37.698;2023-06-19T01:12:28;99898.69;;;21.88
75428;BMP280;64008;55.612;37.698;2023-06-19T01:15:01;99908.09;;;21.91
75428;BMP280;64008;55.612;37.698;2023-06-19T01:17:28;99908.09;;;21.91
75428;BMP280;64008;55.612;37.698;2023-06-19T01:19:55;99912.97;;;20.59
75428;BMP280;64008;55.612;37.698;2023-06-19T01:22:31;99908.31;;;20.46
75428;BMP280;64008;55.612;37.698;2023-06-19T01:24:56;99899.78;;;21.23
75428;BMP280;64008;55.612;37.698;2023-06-19T01:27:25;99904.03;;;21.24
75428;BMP280;64008;55.612;37.698;2023-06-19T01:29:55;99906.78;;;20.59
75428;BMP280;64008;55.612;37.698;2023-06-19T01:32:39;99903.38;;;20.72
75428;BMP280;64008;55.612;37.698;2023-06-19T01:35:07;99901.66;;;21.36
75428;BMP280;64008;55.612;37.698;2023-06-19T01:37:37;99900.69;;;21.46
75428;BMP280;64008;55.612;37.698;2023-06-19T01:40:11;99900.31;;;21.89
75428;BMP280;64008;55.612;37.698;2023-06-19T01:42:38;99909.59;;;21.14
75428;BMP280;64008;55.612;37.698;2023-06-19T01:45:05;99905.03;;;21.42
75428;BMP280;64008;55.612;37.698;2023-06-19T01:47:31;99908.53;;;21.29
75428;BMP280;64008;55.612;37.698;2023-06-19T01:49:57;99910.41;;;20.68
75428;BMP280;64008;55.612;37.698;2023-06-19T01:52:24;99916.41;;;20.92
75428;BMP280;64008;55.612;37.698;2023-06-19T01:54:50;99911.59;;;21.08
75428;BMP280;64008;55.612;37.698;2023-06-19T01:57:15;99905.78;;;21.84
75428;BMP280;64008;55.612;37.698;2023-06-19T01:59:41;99908.03;;;21.54
75428;BMP280;64008;55.612;37.698;2023-06-19T02:02:07;99913.97;;;21.10
75428;BMP280;64008;55.612;37.698;2023-06-19T02:04:33;99903.00;;;21.75
75428;BMP280;64008;55.612;37.698;2023-06-19T02:06:58;99909.13;;;21.39
75428;BMP280;64008;55.612;37.698;2023-06-19T02:09:24;99907.13;;;21.31
75428;BMP280;64008;55.612;37.698;2023-06-19T02:11:49;99912.56;;;21.68
75428;BMP280;64008;55.612;37.698;2023-06-19T02:14:15;99907.81;;;21.09
75428;BMP280;64008;55.612;37.698;2023-06-19T02:16:41;99896.72;;;21.30
75428;BMP280;64008;55.612;37.698;2023-06-19T02:19:10;99910.25;;;20.45
75428;BMP280;64008;55.612;37.698;2023-06-19T02:21:35;99908.72;;;21.05
75428;BMP280;64008;55.612;37.698;2023-06-19T02:24:01;99900.00;;;20.94
75428;BMP280;64008;55.612;37.698;2023-06-19T02:26:26;99910.94;;;20.51
75428;BMP280;64008;55.612;37.698;2023-06-19T02:28:55;99904.47;;;20.19
75428;BMP280;64008;55.612;37.698;2023-06-19T02:31:23;99905.69;;;20.60
75428;BMP280;64008;55.612;37.698;2023-06-19T02:33:49;99901.53;;;21.14
75428;BMP280;64008;55.612;37.698;2023-06-19T02:36:15;99899.91;;;20.85
75428;BMP280;64008;55.612;37.698;2023-06-19T02:38:45;99904.81;;;20.83
75428;BMP280;64008;55.612;37.698;2023-06-19T02:41:12;99901.25;;;20.88
75428;BMP280;64008;55.612;37.698;2023-06-19T02:43:37;99900.41;;;20.73
75428;BMP280;64008;55.612;37.698;2023-06-19T02:46:03;99905.81;;;20.68
75428;BMP280;64008;55.612;37.698;2023-06-19T02:48:28;99900.72;;;20.34
75428;BMP280;64008;55.612;37.698;2023-06-19T02:50:54;99902.31;;;20.54
75428;BMP280;64008;55.612;37.698;2023-06-19T02:53:19;99902.34;;;20.68
75428;BMP280;64008;55.612;37.698;2023-06-19T02:55:45;99899.25;;;20.61
75428;BMP280;64008;55.612;37.698;2023-06-19T02:58:10;99899.25;;;20.61
75428;BMP280;64008;55.612;37.698;2023-06-19T03:00:36;99894.84;;;20.51
75428;BMP280;64008;55.612;37.698;2023-06-19T03:03:01;99899.69;;;20.49
75428;BMP280;64008;55.612;37.698;2023-06-19T03:05:27;99893.84;;;20.28
75428;BMP280;64008;55.612;37.698;2023-06-19T03:07:52;99899.84;;;20.20
75428;BMP280;64008;55.612;37.698;2023-06-19T03:10:18;99903.59;;;20.24
75428;BMP280;64008;55.612;37.698;2023-06-19T03:12:43;99892.69;;;20.34
75428;BMP280;64008;55.612;37.698;2023-06-19T03:15:09;99894.41;;;20.25
75428;BMP280;64008;55.612;37.698;2023-06-19T03:17:35;99891.31;;;19.99
75428;BMP280;64008;55.612;37.698;2023-06-19T03:20:00;99895.22;;;20.06
75428;BMP280;64008;55.612;37.698;2023-06-19T03:22:26;99893.88;;;20.09
75428;BMP280;64008;55.612;37.698;2023-06-19T03:24:51;99882.47;;;19.98
75428;BMP280;64008;55.612;37.698;2023-06-19T03:27:17;99891.78;;;20.06
75428;BMP280;64008;55.612;37.698;2023-06-19T03:29:43;99893.44;;;20.02
75428;BMP280;64008;55.612;37.698;2023-06-19T03:32:08;99896.38;;;20.00
75428;BMP280;64008;55.612;37.698;2023-06-19T03:34:34;99895.38;;;19.96
75428;BMP280;64008;55.612;37.698;2023-06-19T03:37:00;99890.94;;;20.05
75428;BMP280;64008;55.612;37.698;2023-06-19T03:39:25;99897.03;;;19.92
75428;BMP280;64008;55.612;37.698;2023-06-19T03:41:51;99895.94;;;20.12
75428;BMP280;64008;55.612;37.698;2023-06-19T03:44:16;99890.75;;;20.21
75428;BMP280;64008;55.612;37.698;2023-06-19T03:46:42;99896.97;;;20.16
75428;BMP280;64008;55.612;37.698;2023-06-19T03:49:08;99903.94;;;20.17
75428;BMP280;64008;55.612;37.698;2023-06-19T03:51:34;99894.88;;;20.13
75428;BMP280;64008;55.612;37.698;2023-06-19T03:54:00;99892.88;;;20.24
75428;BMP280;64008;55.612;37.698;2023-06-19T03:56:25;99903.00;;;20.27
75428;BMP280;64008;55.612;37.698;2023-06-19T03:58:51;99901.31;;;20.31
75428;BMP280;64008;55.612;37.698;2023-06-19T04:01:16;99907.78;;;20.30
75428;BMP280;64008;55.612;37.698;2023-06-19T04:03:42;99910.81;;;20.23
75428;BMP280;64008;55.612;37.698;2023-06-19T04:06:08;99907.78;;;20.11
75428;BMP280;64008;55.612;37.698;2023-06-19T04:08:33;99904.00;;;20.12
75428;BMP280;64008;55.612;37.698;2023-06-19T04:10:59;99908.38;;;20.27
75428;BMP280;64008;55.612;37.698;2023-06-19T04:13:24;99906.75;;;20.26
75428;BMP280;64008;55.612;37.698;2023-06-19T04:15:51;99903.63;;;20.38
75428;BMP280;64008;55.612;37.698;2023-06-19T04:18:17;99898.56;;;20.36
75428;BMP280;64008;55.612;37.698;2023-06-19T04:20:43;99903.91;;;20.36
75428;BMP280;64008;55.612;37.698;2023-06-19T04:23:09;99900.66;;;20.39
75428;BMP280;64008;55.612;37.698;2023-06-19T04:25:34;99908.19;;;20.37
75428;BMP280;64008;55.612;37.698;2023-06-19T04:28:00;99902.47;;;20.44
75428;BMP280;64008;55.612;37.698;2023-06-19T04:30:29;99906.47;;;20.46
75428;BMP280;64008;55.612;37.698;2023-06-19T04:32:55;99903.97;;;20.50
75428;BMP280;64008;55.612;37.698;2023-06-19T04:35:21;99895.28;;;20.39
75428;BMP280;64008;55.612;37.698;2023-06-19T04:37:49;99896.16;;;20.53
75428;BMP280;64008;55.612;37.698;2023-06-19T04:40:14;99903.53;;;20.62
75428;BMP280;64008;55.612;37.698;2023-06-19T04:42:40;99899.94;;;20.52
75428;BMP280;64008;55.612;37.698;2023-06-19T04:45:06;99891.41;;;20.32
75428;BMP280;64008;55.612;37.698;2023-06-19T04:47:34;99897.22;;;20.85
75428;BMP280;64008;55.612;37.698;2023-06-19T04:50:00;99892.19;;;20.65
75428;BMP280;64008;55.612;37.698;2023-06-19T04:52:26;99895.34;;;20.67
75428;BMP280;64008;55.612;37.698;2023-06-19T04:54:51;99893.34;;;20.59
75428;BMP280;64008;55.612;37.698;2023-06-19T04:57:17;99906.44;;;20.65
75428;BMP280;64008;55.612;37.698;2023-06-19T04:59:43;99898.78;;;20.72
75428;BMP280;64008;55.612;37.698;2023-06-19T05:02:11;99897.38;;;20.61
75428;BMP280;64008;55.612;37.698;2023-06-19T05:04:37;99901.28;;;20.69
75428;BMP280;64008;55.612;37.698;2023-06-19T05:07:03;99904.66;;;20.74
75428;BMP280;64008;55.612;37.698;2023-06-19T05:09:29;99902.91;;;20.84
75428;BMP280;64008;55.612;37.698;2023-06-19T05:11:57;99899.28;;;20.74
75428;BMP280;64008;55.612;37.698;2023-06-19T05:14:22;99907.88;;;20.90
75428;BMP280;64008;55.612;37.698;2023-06-19T05:16:48;99900.75;;;21.00
75428;BMP280;64008;55.612;37.698;2023-06-19T05:19:13;99902.00;;;21.02
75428;BMP280;64008;55.612;37.698;2023-06-19T05:21:39;99897.84;;;21.10
75428;BMP280;64008;55.612;37.698;2023-06-19T05:24:04;99898.81;;;22.42
75428;BMP280;64008;55.612;37.698;2023-06-19T05:26:30;99892.94;;;23.02
75428;BMP280;64008;55.612;37.698;2023-06-19T05:28:55;99898.16;;;23.47
75428;BMP280;64008;55.612;37.698;2023-06-19T05:31:21;99898.16;;;23.47
75428;BMP280;64008;55.612;37.698;2023-06-19T05:33:46;99885.34;;;23.79
75428;BMP280;64008;55.612;37.698;2023-06-19T05:36:12;99885.34;;;23.79
75428;BMP280;64008;55.612;37.698;2023-06-19T05:38:37;99888.81;;;23.88
75428;BMP280;64008;55.612;37.698;2023-06-19T05:41:03;99885.63;;;24.21
75428;BMP280;64008;55.612;37.698;2023-06-19T05:43:29;99885.63;;;24.21
75428;BMP280;64008;55.612;37.698;2023-06-19T05:45:54;99881.66;;;24.18
75428;BMP280;64008;55.612;37.698;2023-06-19T05:48:25;99885.31;;;24.22
75428;BMP280;64008;55.612;37.698;2023-06-19T05:50:51;99885.31;;;24.22
75428;BMP280;64008;55.612;37.698;2023-06-19T05:53:16;99882.75;;;24.26
75428;BMP280;64008;55.612;37.698;2023-06-19T05:55:42;99880.38;;;24.80
75428;BMP280;64008;55.612;37.698;2023-06-19T05:58:08;99880.38;;;24.80
75428;BMP280;64008;55.612;37.698;2023-06-19T06:00:34;99885.25;;;24.48
75428;BMP280;64008;55.612;37.698;2023-06-19T06:02:59;99881.59;;;24.44
75428;BMP280;64008;55.612;37.698;2023-06-19T06:05:26;99882.50;;;24.66
75428;BMP280;64008;55.612;37.698;2023-06-19T06:07:51;99882.50;;;24.66
75428;BMP280;64008;55.612;37.698;2023-06-19T06:10:18;99891.75;;;24.47
75428;BMP280;64008;55.612;37.698;2023-06-19T06:12:44;99891.75;;;24.47
75428;BMP280;64008;55.612;37.698;2023-06-19T06:15:10;99887.81;;;24.45
75428;BMP280;64008;55.612;37.698;2023-06-19T06:17:36;99886.63;;;24.63
75428;BMP280;64008;55.612;37.698;2023-06-19T06:20:02;99875.19;;;24.66
75428;BMP280;64008;55.612;37.698;2023-06-19T06:22:29;99885.78;;;24.80
75428;BMP280;64008;55.612;37.698;2023-06-19T06:24:54;99886.50;;;24.98
75428;BMP280;64008;55.612;37.698;2023-06-19T06:27:20;99879.44;;;25.06
75428;BMP280;64008;55.612;37.698;2023-06-19T06:29:46;99882.75;;;24.82
75428;BMP280;64008;55.612;37.698;2023-06-19T06:32:11;99882.00;;;25.02
75428;BMP280;64008;55.612;37.698;2023-06-19T06:34:37;99878.97;;;25.04
75428;BMP280;64008;55.612;37.698;2023-06-19T06:37:02;99875.34;;;24.99
75428;BMP280;64008;55.612;37.698;2023-06-19T06:39:28;99884.91;;;25.48
75428;BMP280;64008;55.612;37.698;2023-06-19T06:41:54;99884.91;;;25.48
75428;BMP280;64008;55.612;37.698;2023-06-19T06:44:19;99880.72;;;25.29
75428;BMP280;64008;55.612;37.698;2023-06-19T06:46:45;99881.28;;;25.43
75428;BMP280;64008;55.612;37.698;2023-06-19T06:49:11;99881.28;;;25.43
75428;BMP280;64008;55.612;37.698;2023-06-19T06:51:37;99879.88;;;24.87
75428;BMP280;64008;55.612;37.698;2023-06-19T06:54:02;99879.88;;;24.87
75428;BMP280;64008;55.612;37.698;2023-06-19T06:56:28;99870.03;;;24.82
75428;BMP280;64008;55.612;37.698;2023-06-19T06:58:53;99871.38;;;24.97
75428;BMP280;64008;55.612;37.698;2023-06-19T07:01:19;99864.78;;;25.15
75428;BMP280;64008;55.612;37.698;2023-06-19T07:03:44;99862.38;;;25.14
75428;BMP280;64008;55.612;37.698;2023-06-19T07:06:10;99863.59;;;25.25
75428;BMP280;64008;55.612;37.698;2023-06-19T07:08:35;99863.47;;;25.13
75428;BMP280;64008;55.612;37.698;2023-06-19T07:11:01;99868.50;;;25.02
75428;BMP280;64008;55.612;37.698;2023-06-19T07:13:27;99855.59;;;25.08
75428;BMP280;64008;55.612;37.698;2023-06-19T07:15:52;99864.25;;;24.63
75428;BMP280;64008;55.612;37.698;2023-06-19T07:18:18;99863.56;;;24.19
75428;BMP280;64008;55.612;37.698;2023-06-19T07:20:43;99854.00;;;24.77
75428;BMP280;64008;55.612;37.698;2023-06-19T07:23:10;99854.56;;;24.91
75428;BMP280;64008;55.612;37.698;2023-06-19T07:25:36;99850.25;;;25.20
75428;BMP280;64008;55.612;37.698;2023-06-19T07:28:01;99845.88;;;25.49
75428;BMP280;64008;55.612;37.698;2023-06-19T07:30:30;99849.22;;;25.54
75428;BMP280;64008;55.612;37.698;2023-06-19T07:32:56;99849.53;;;25.53
75428;BMP280;64008;55.612;37.698;2023-06-19T07:35:21;99853.09;;;25.44
75428;BMP280;64008;55.612;37.698;2023-06-19T07:37:47;99840.75;;;25.56
75428;BMP280;64008;55.612;37.698;2023-06-19T07:40:12;99854.75;;;25.37
75428;BMP280;64008;55.612;37.698;2023-06-19T07:42:38;99852.13;;;24.60
75428;BMP280;64008;55.612;37.698;2023-06-19T07:45:04;99838.63;;;24.98
75428;BMP280;64008;55.612;37.698;2023-06-19T07:47:30;99842.13;;;24.99
75428;BMP280;64008;55.612;37.698;2023-06-19T07:49:55;99840.16;;;25.29
75428;BMP280;64008;55.612;37.698;2023-06-19T07:52:21;99843.03;;;25.54
75428;BMP280;64008;55.612;37.698;2023-06-19T07:54:53;99844.69;;;25.58
75428;BMP280;64008;55.612;37.698;2023-06-19T07:57:20;99844.69;;;25.58
75428;BMP280;64008;55.612;37.698;2023-06-19T07:59:46;99848.81;;;25.64
75428;BMP280;64008;55.612;37.698;2023-06-19T08:02:11;99850.25;;;25.62
75428;BMP280;64008;55.612;37.698;2023-06-19T08:04:37;99845.50;;;25.59
75428;BMP280;64008;55.612;37.698;2023-06-19T08:07:03;99848.56;;;25.57
75428;BMP280;64008;55.612;37.698;2023-06-19T08:09:28;99844.66;;;25.67
75428;BMP280;64008;55.612;37.698;2023-06-19T08:11:54;99844.66;;;25.67
75428;BMP280;64008;55.612;37.698;2023-06-19T08:14:20;99840.81;;;25.68
75428;BMP280;64008;55.612;37.698;2023-06-19T08:16:45;99840.16;;;25.71
75428;BMP280;64008;55.612;37.698;2023-06-19T08:19:11;99833.03;;;25.79
75428;BMP280;64008;55.612;37.698;2023-06-19T08:21:36;99827.31;;;25.80
75428;BMP280;64008;55.612;37.698;2023-06-19T08:24:02;99832.06;;;25.83
75428;BMP280;64008;55.612;37.698;2023-06-19T08:26:27;99837.91;;;25.73
75428;BMP280;64008;55.612;37.698;2023-06-19T08:28:53;99833.16;;;25.82
75428;BMP280;64008;55.612;37.698;2023-06-19T08:31:19;99832.38;;;25.82
75428;BMP280;64008;55.612;37.698;2023-06-19T08:33:46;99825.72;;;25.79
75428;BMP280;64008;55.612;37.698;2023-06-19T08:36:13;99834.53;;;25.76
75428;BMP280;64008;55.612;37.698;2023-06-19T08:38:39;99831.94;;;25.80
75428;BMP280;64008;55.612;37.698;2023-06-19T08:41:04;99830.53;;;25.95
75428;BMP280;64008;55.612;37.698;2023-06-19T08:43:30;99824.19;;;25.90
75428;BMP280;64008;55.612;37.698;2023-06-19T08:46:14;99826.38;;;25.97
75428;BMP280;64008;55.612;37.698;2023-06-19T08:48:41;99817.75;;;25.83
75428;BMP280;64008;55.612;37.698;2023-06-19T08:51:06;99813.25;;;25.99
75428;BMP280;64008;55.612;37.698;2023-06-19T08:53:43;99812.94;;;26.01
75428;BMP280;64008;55.612;37.698;2023-06-19T08:56:09;99809.66;;;25.95
75428;BMP280;64008;55.612;37.698;2023-06-19T08:58:34;99809.09;;;26.02
75428;BMP280;64008;55.612;37.698;2023-06-19T09:01:00;99805.31;;;25.82
75428;BMP280;64008;55.612;37.698;2023-06-19T09:03:25;99807.34;;;25.31
75428;BMP280;64008;55.612;37.698;2023-06-19T09:05:51;99810.41;;;25.29
75428;BMP280;64008;55.612;37.698;2023-06-19T09:08:20;99803.38;;;25.70
75428;BMP280;64008;55.612;37.698;2023-06-19T09:10:57;99801.91;;;24.97
75428;BMP280;64008;55.612;37.698;2023-06-19T09:13:22;99801.91;;;24.97
75428;BMP280;64008;55.612;37.698;2023-06-19T09:16:00;99805.41;;;25.19
75428;BMP280;64008;55.612;37.698;2023-06-19T09:18:32;99808.03;;;25.28
75428;BMP280;64008;55.612;37.698;2023-06-19T09:21:06;99800.41;;;25.30
75428;BMP280;64008;55.612;37.698;2023-06-19T09:23:39;99810.94;;;25.02
75428;BMP280;64008;55.612;37.698;2023-06-19T09:26:05;99803.41;;;25.07
75428;BMP280;64008;55.612;37.698;2023-06-19T09:28:30;99806.50;;;25.18
75428;BMP280;64008;55.612;37.698;2023-06-19T09:31:00;99799.22;;;25.18
75428;BMP280;64008;55.612;37.698;2023-06-19T09:33:29;99800.78;;;24.98
75428;BMP280;64008;55.612;37.698;2023-06-19T09:35:56;99799.19;;;24.97
75428;BMP280;64008;55.612;37.698;2023-06-19T09:38:26;99795.75;;;25.30
75428;BMP280;64008;55.612;37.698;2023-06-19T09:40:53;99791.94;;;25.10
75428;BMP280;64008;55.612;37.698;2023-06-19T09:43:23;99791.94;;;25.10
75428;BMP280;64008;55.612;37.698;2023-06-19T09:45:50;99787.63;;;25.51
75428;BMP280;64008;55.612;37.698;2023-06-19T09:48:20;99787.81;;;25.67
75428;BMP280;64008;55.612;37.698;2023-06-19T09:50:51;99785.72;;;25.85
75428;BMP280;64008;55.612;37.698;2023-06-19T09:53:19;99790.97;;;25.69
75428;BMP280;64008;55.612;37.698;2023-06-19T09:55:48;99782.78;;;25.78
75428;BMP280;64008;55.612;37.698;2023-06-19T09:58:14;99779.41;;;25.93
75428;BMP280;64008;55.612;37.698;2023-06-19T10:00:40;99778.34;;;25.85
75428;BMP280;64008;55.612;37.698;2023-06-19T10:03:11;99773.09;;;25.89
75428;BMP280;64008;55.612;37.698;2023-06-19T10:05:37;99768.75;;;26.21
75428;BMP280;64008;55.612;37.698;2023-06-19T10:08:02;99768.59;;;26.54
75428;BMP280;64008;55.612;37.698;2023-06-19T10:10:30;99767.50;;;26.55
75428;BMP280;64008;55.612;37.698;2023-06-19T10:12:58;99767.50;;;26.55
75428;BMP280;64008;55.612;37.698;2023-06-19T10:15:28;99771.44;;;26.21
75428;BMP280;64008;55.612;37.698;2023-06-19T10:18:04;99766.81;;;26.22
75428;BMP280;64008;55.612;37.698;2023-06-19T10:20:32;99767.59;;;26.34
75428;BMP280;64008;55.612;37.698;2023-06-19T10:23:10;99756.78;;;26.34
75428;BMP280;64008;55.612;37.698;2023-06-19T10:25:39;99754.72;;;26.07
75428;BMP280;64008;55.612;37.698;2023-06-19T10:28:19;99755.94;;;26.09
75428;BMP280;64008;55.612;37.698;2023-06-19T10:30:45;99751.31;;;26.22
75428;BMP280;64008;55.612;37.698;2023-06-19T10:33:17;99753.59;;;26.32
75428;BMP280;64008;55.612;37.698;2023-06-19T10:35:42;99743.09;;;26.06
75428;BMP280;64008;55.612;37.698;2023-06-19T10:38:08;99747.06;;;26.21
75428;BMP280;64008;55.612;37.698;2023-06-19T10:40:37;99741.13;;;26.80
75428;BMP280;64008;55.612;37.698;2023-06-19T10:43:03;99741.13;;;26.80
75428;BMP280;64008;55.612;37.698;2023-06-19T10:45:29;99746.16;;;26.94
75428;BMP280;64008;55.612;37.698;2023-06-19T10:47:55;99747.13;;;27.14
75428;BMP280;64008;55.612;37.698;2023-06-19T10:50:21;99737.34;;;27.25
75428;BMP280;64008;55.612;37.698;2023-06-19T10:52:47;99752.06;;;27.40
75428;BMP280;64008;55.612;37.698;2023-06-19T10:55:14;99738.03;;;27.22
75428;BMP280;64008;55.612;37.698;2023-06-19T10:57:47;99743.22;;;27.27
75428;BMP280;64008;55.612;37.698;2023-06-19T11:00:26;99744.63;;;27.37
75428;BMP280;64008;55.612;37.698;2023-06-19T11:02:52;99730.03;;;27.42
75428;BMP280;64008;55.612;37.698;2023-06-19T11:05:20;99737.63;;;27.36
75428;BMP280;64008;55.612;37.698;2023-06-19T11:07:56;99724.69;;;27.45
75428;BMP280;64008;55.612;37.698;2023-06-19T11:10:23;99729.06;;;27.50
75428;BMP280;64008;55.612;37.698;2023-06-19T11:12:50;99734.63;;;27.41
75428;BMP280;64008;55.612;37.698;2023-06-19T11:15:15;99721.97;;;27.45
75428;BMP280;64008;55.612;37.698;2023-06-19T11:17:41;99719.19;;;27.58
75428;BMP280;64008;55.612;37.698;2023-06-19T11:20:10;99717.53;;;27.53
75428;BMP280;64008;55.612;37.698;2023-06-19T11:22:37;99717.25;;;27.58
75428;BMP280;64008;55.612;37.698;2023-06-19T11:25:04;99714.34;;;27.51
75428;BMP280;64008;55.612;37.698;2023-06-19T11:27:31;99712.84;;;27.53
75428;BMP280;64008;55.612;37.698;2023-06-19T11:29:58;99714.44;;;27.54
75428;BMP280;64008;55.612;37.698;2023-06-19T11:32:29;99712.34;;;27.48
75428;BMP280;64008;55.612;37.698;2023-06-19T11:34:56;99706.19;;;27.51
75428;BMP280;64008;55.612;37.698;2023-06-19T11:37:21;99702.09;;;27.57
75428;BMP280;64008;55.612;37.698;2023-06-19T11:39:48;99696.91;;;27.36
75428;BMP280;64008;55.612;37.698;2023-06-19T11:42:15;99696.13;;;27.36
75428;BMP280;64008;55.612;37.698;2023-06-19T11:45:00;99695.94;;;27.44
75428;BMP280;64008;55.612;37.698;2023-06-19T11:47:31;99693.59;;;27.59
75428;BMP280;64008;55.612;37.698;2023-06-19T11:49:58;99693.00;;;27.65
75428;BMP280;64008;55.612;37.698;2023-06-19T11:52:23;99692.28;;;27.68
75428;BMP280;64008;55.612;37.698;2023-06-19T11:54:49;99686.97;;;27.56
75428;BMP280;64008;55.612;37.698;2023-06-19T11:57:14;99694.22;;;27.52
75428;BMP280;64008;55.612;37.698;2023-06-19T11:59:40;99702.06;;;27.41
75428;BMP280;64008;55.612;37.698;2023-06-19T12:02:06;99690.78;;;27.39
75428;BMP280;64008;55.612;37.698;2023-06-19T12:04:32;99684.59;;;27.54
75428;BMP280;64008;55.612;37.698;2023-06-19T12:06:57;99681.28;;;27.61
75428;BMP280;64008;55.612;37.698;2023-06-19T12:09:23;99671.38;;;27.69
75428;BMP280;64008;55.612;37.698;2023-06-19T12:11:49;99680.44;;;27.76
75428;BMP280;64008;55.612;37.698;2023-06-19T12:14:15;99685.88;;;27.76
75428;BMP280;64008;55.612;37.698;2023-06-19T12:16:40;99683.97;;;27.77
75428;BMP280;64008;55.612;37.698;2023-06-19T12:19:06;99670.03;;;27.78
75428;BMP280;64008;55.612;37.698;2023-06-19T12:21:31;99679.34;;;27.77
75428;BMP280;64008;55.612;37.698;2023-06-19T12:23:57;99670.03;;;27.78
75428;BMP280;64008;55.612;37.698;2023-06-19T12:26:22;99670.28;;;27.73
75428;BMP280;64008;55.612;37.698;2023-06-19T12:28:50;99664.16;;;27.76
75428;BMP280;64008;55.612;37.698;2023-06-19T12:31:16;99660.13;;;27.86
75428;BMP280;64008;55.612;37.698;2023-06-19T12:33:42;99656.34;;;27.91
75428;BMP280;64008;55.612;37.698;2023-06-19T12:36:14;99649.84;;;27.95
75428;BMP280;64008;55.612;37.698;2023-06-19T12:38:40;99663.97;;;28.01
75428;BMP280;64008;55.612;37.698;2023-06-19T12:41:06;99657.38;;;28.02
75428;BMP280;64008;55.612;37.698;2023-06-19T12:43:32;99644.50;;;27.99
75428;BMP280;64008;55.612;37.698;2023-06-19T12:45:58;99642.66;;;28.03
75428;BMP280;64008;55.612;37.698;2023-06-19T12:48:25;99645.81;;;28.05
75428;BMP280;64008;55.612;37.698;2023-06-19T12:50:51;99635.34;;;28.07
75428;BMP280;64008;55.612;37.698;2023-06-19T12:53:16;99646.69;;;28.09
75428;BMP280;64008;55.612;37.698;2023-06-19T12:55:42;99639.16;;;28.03
75428;BMP280;64008;55.612;37.698;2023-06-19T12:58:08;99638.25;;;28.14
75428;BMP280;64008;55.612;37.698;2023-06-19T13:00:34;99629.31;;;28.14
75428;BMP280;64008;55.612;37.698;2023-06-19T13:03:00;99631.69;;;28.15
75428;BMP280;64008;55.612;37.698;2023-06-19T13:05:25;99628.50;;;28.13
75428;BMP280;64008;55.612;37.698;2023-06-19T13:07:51;99627.88;;;28.20
75428;BMP280;64008;55.612;37.698;2023-06-19T13:10:16;99620.91;;;28.19
75428;BMP280;64008;55.612;37.698;2023-06-19T13:12:42;99622.91;;;28.22
75428;BMP280;64008;55.612;37.698;2023-06-19T13:15:08;99620.22;;;28.25
75428;BMP280;64008;55.612;37.698;2023-06-19T13:17:33;99612.50;;;28.28
75428;BMP280;64008;55.612;37.698;2023-06-19T13:19:59;99612.16;;;28.29
75428;BMP280;64008;55.612;37.698;2023-06-19T13:22:25;99605.59;;;28.30
75428;BMP280;64008;55.612;37.698;2023-06-19T13:24:51;99602.16;;;28.33
75428;BMP280;64008;55.612;37.698;2023-06-19T13:27:16;99602.22;;;28.37
75428;BMP280;64008;55.612;37.698;2023-06-19T13:29:42;99599.56;;;28.40
75428;BMP280;64008;55.612;37.698;2023-06-19T13:32:07;99606.06;;;28.36
75428;BMP280;64008;55.612;37.698;2023-06-19T13:34:33;99604.28;;;28.43
75428;BMP280;64008;55.612;37.698;2023-06-19T13:36:59;99602.50;;;28.51
75428;BMP280;64008;55.612;37.698;2023-06-19T13:39:24;99598.16;;;28.46
75428;BMP280;64008;55.612;37.698;2023-06-19T13:41:51;99593.50;;;28.47
75428;BMP280;64008;55.612;37.698;2023-06-19T13:44:16;99599.63;;;28.44
75428;BMP280;64008;55.612;37.698;2023-06-19T13:46:42;99597.56;;;28.37
75428;BMP280;64008;55.612;37.698;2023-06-19T13:49:08;99592.06;;;28.34
75428;BMP280;64008;55.612;37.698;2023-06-19T13:51:33;99589.69;;;28.32
75428;BMP280;64008;55.612;37.698;2023-06-19T13:53:59;99592.06;;;28.34